Time,TemperatureF,DewpointF,PressureIn,WindDirection,WindDirectionDegrees,WindSpeedMPH,WindSpeedGustMPH,Humidity,HourlyPrecipIn,Conditions,Clouds,dailyrainin,SoftwareType,DateUTC
2013-11-04 00:07:00,26.2,19.0,29.97,West,278,0.0,1.0,75,0.00,,,0.00,weatherlink.com 1.10,2013-11-04 07:07:00,
2013-11-04 00:22:00,25.8,19.0,29.98,West,275,0.0,1.0,75,0.00,,,0.00,weatherlink.com 1.10,2013-11-04 07:22:00,
2013-11-04 00:37:00,25.6,19.0,29.98,WNW,283,0.0,1.0,76,0.00,,,0.00,weatherlink.com 1.10,2013-11-04 07:37:00,
2013-11-04 00:52:00,25.6,19.0,29.97,NW,324,1.0,1.0,76,0.00,,,0.00,weatherlink.com 1.10,2013-11-04 07:52:00,
2013-11-04 01:07:00,25.6,19.0,29.96,West,281,0.0,1.0,76,0.00,,,0.00,weatherlink.com 1.10,2013-11-04 08:07:00,
2013-11-04 01:22:00,25.5,19.0,29.96,NNW,334,0.0,1.0,76,0.00,,,0.00,weatherlink.com 1.10,2013-11-04 08:22:00,
2013-11-04 01:37:00,25.7,19.0,29.95,WNW,288,0.0,1.0,76,0.00,,,0.00,weatherlink.com 1.10,2013-11-04 08:37:00,
2013-11-04 01:52:00,26.4,19.0,29.95,North,349,1.0,2.0,74,0.00,,,0.00,weatherlink.com 1.10,2013-11-04 08:52:00,
2013-11-04 02:07:00,26.3,19.0,29.95,SSE,148,0.0,1.0,74,0.00,,,0.00,weatherlink.com 1.10,2013-11-04 09:07:00,
2013-11-04 02:22:00,25.5,19.0,29.95,SSW,213,0.0,0.0,76,0.00,,,0.00,weatherlink.com 1.10,2013-11-04 09:22:00,
2013-11-04 02:37:00,25.3,19.0,29.95,WSW,243,0.0,0.0,76,0.00,,,0.00,weatherlink.com 1.10,2013-11-04 09:37:00,
2013-11-04 02:52:00,24.9,19.0,29.94,West,269,0.0,0.0,77,0.00,,,0.00,weatherlink.com 1.10,2013-11-04 09:52:00,
2013-11-04 03:07:00,25.0,19.0,29.94,NNW,328,0.0,2.0,77,0.00,,,0.00,weatherlink.com 1.10,2013-11-04 10:07:00,
2013-11-04 03:22:00,24.9,19.0,29.94,West,259,0.0,2.0,78,0.00,,,0.00,weatherlink.com 1.10,2013-11-04 10:22:00,
2013-11-04 03:38:00,24.8,19.0,29.94,NNW,338,1.0,2.0,78,0.00,,,0.00,weatherlink.com 1.10,2013-11-04 10:38:00,
2013-11-04 03:53:00,24.9,19.0,29.93,West,281,1.0,1.0,78,0.00,,,0.00,weatherlink.com 1.10,2013-11-04 10:53:00,
2013-11-04 04:08:00,24.7,19.0,29.93,SW,214,0.0,1.0,79,0.00,,,0.00,weatherlink.com 1.10,2013-11-04 11:08:00,
2013-11-04 04:23:00,24.6,19.0,29.92,NNW,330,0.0,4.0,80,0.00,,,0.00,weatherlink.com 1.10,2013-11-04 11:23:00,
2013-11-04 04:38:00,24.4,19.0,29.92,NW,321,0.0,1.0,80,0.00,,,0.00,weatherlink.com 1.10,2013-11-04 11:38:00,
2013-11-04 04:53:00,24.6,19.0,29.92,North,1,1.0,3.0,80,0.00,,,0.00,weatherlink.com 1.10,2013-11-04 11:53:00,
2013-11-04 05:08:00,24.6,19.0,29.93,NW,318,0.0,1.0,80,0.00,,,0.00,weatherlink.com 1.10,2013-11-04 12:08:00,
2013-11-04 05:23:00,24.8,20.0,29.92,NNW,348,1.0,4.0,81,0.00,,,0.00,weatherlink.com 1.10,2013-11-04 12:23:00,
2013-11-04 05:38:00,25.3,20.0,29.92,North,349,2.0,3.0,81,0.00,,,0.00,weatherlink.com 1.10,2013-11-04 12:38:00,
2013-11-04 05:53:00,25.7,21.0,29.93,WNW,302,0.0,3.0,81,0.00,,,0.00,weatherlink.com 1.10,2013-11-04 12:53:00,
2013-11-04 06:08:00,25.8,21.0,29.93,WNW,297,0.0,2.0,81,0.00,,,0.00,weatherlink.com 1.10,2013-11-04 13:08:00,
2013-11-04 06:23:00,26.3,21.0,29.93,NNW,334,1.0,2.0,81,0.00,,,0.00,weatherlink.com 1.10,2013-11-04 13:23:00,
2013-11-04 06:38:00,26.8,22.0,29.93,SSW,205,0.0,2.0,82,0.00,,,0.00,weatherlink.com 1.10,2013-11-04 13:38:00,
2013-11-04 06:53:00,27.2,22.0,29.93,North,351,0.0,1.0,81,0.00,,,0.00,weatherlink.com 1.10,2013-11-04 13:53:00,
2013-11-04 07:08:00,28.3,23.0,29.94,NNW,348,0.0,2.0,80,0.00,,,0.00,weatherlink.com 1.10,2013-11-04 14:08:00,
2013-11-04 07:23:00,29.7,24.0,29.95,NNW,344,1.0,2.0,79,0.00,,,0.00,weatherlink.com 1.10,2013-11-04 14:23:00,
2013-11-04 07:38:00,31.9,25.0,29.95,NNW,328,0.0,2.0,76,0.00,,,0.00,weatherlink.com 1.10,2013-11-04 14:38:00,
2013-11-04 07:53:00,35.3,26.0,29.96,NW,314,2.0,4.0,70,0.00,,,0.00,weatherlink.com 1.10,2013-11-04 14:53:00,
2013-11-04 08:09:00,40.1,27.0,29.96,WNW,293,1.0,4.0,59,0.00,,,0.00,weatherlink.com 1.10,2013-11-04 15:09:00,
2013-11-04 08:24:00,43.4,26.0,29.97,NW,326,1.0,7.0,51,0.00,,,0.00,weatherlink.com 1.10,2013-11-04 15:24:00,
2013-11-04 08:39:00,44.3,26.0,29.96,SW,222,5.0,7.0,48,0.00,,,0.00,weatherlink.com 1.10,2013-11-04 15:39:00,
2013-11-04 08:54:00,45.4,26.0,29.97,SW,219,2.0,7.0,46,0.00,,,0.00,weatherlink.com 1.10,2013-11-04 15:54:00,
2013-11-04 09:09:00,45.8,26.0,29.97,SSW,206,2.0,6.0,46,0.00,,,0.00,weatherlink.com 1.10,2013-11-04 16:09:00,
2013-11-04 09:24:00,46.7,26.0,29.97,SSE,148,1.0,8.0,44,0.00,,,0.00,weatherlink.com 1.10,2013-11-04 16:24:00,
2013-11-04 09:39:00,48.0,26.0,29.97,SE,130,4.0,12.0,42,0.00,,,0.00,weatherlink.com 1.10,2013-11-04 16:39:00,
2013-11-04 09:54:00,47.6,25.0,29.97,WSW,257,5.0,13.0,42,0.00,,,0.00,weatherlink.com 1.10,2013-11-04 16:54:00,
2013-11-04 10:09:00,47.7,25.0,29.96,West,266,7.0,10.0,42,0.00,,,0.00,weatherlink.com 1.10,2013-11-04 17:09:00,
2013-11-04 10:24:00,47.5,26.0,29.96,WSW,247,1.0,12.0,43,0.00,,,0.00,weatherlink.com 1.10,2013-11-04 17:24:00,
2013-11-04 10:39:00,47.9,27.0,29.96,West,272,6.0,10.0,44,0.00,,,0.00,weatherlink.com 1.10,2013-11-04 17:39:00,
2013-11-04 10:54:00,49.4,28.0,29.96,SE,132,5.0,19.0,43,0.00,,,0.00,weatherlink.com 1.10,2013-11-04 17:54:00,
2013-11-04 11:09:00,49.9,27.0,29.96,WSW,240,3.0,13.0,42,0.00,,,0.00,weatherlink.com 1.10,2013-11-04 18:09:00,
2013-11-04 11:24:00,50.4,27.0,29.95,SE,142,3.0,11.0,41,0.00,,,0.00,weatherlink.com 1.10,2013-11-04 18:24:00,
2013-11-04 11:39:00,51.2,27.0,29.95,SE,136,4.0,12.0,39,0.00,,,0.00,weatherlink.com 1.10,2013-11-04 18:39:00,
2013-11-04 11:54:00,51.4,26.0,29.94,SW,217,4.0,16.0,38,0.00,,,0.00,weatherlink.com 1.10,2013-11-04 18:54:00,
2013-11-04 12:09:00,52.0,26.0,29.93,SSW,200,5.0,15.0,37,0.00,,,0.00,weatherlink.com 1.10,2013-11-04 19:09:00,
2013-11-04 12:24:00,51.8,26.0,29.92,SSE,160,7.0,10.0,37,0.00,,,0.00,weatherlink.com 1.10,2013-11-04 19:24:00,
2013-11-04 12:39:00,51.7,27.0,29.92,WSW,240,9.0,15.0,38,0.00,,,0.00,weatherlink.com 1.10,2013-11-04 19:39:00,
2013-11-04 12:54:00,51.6,27.0,29.91,SE,145,8.0,14.0,38,0.00,,,0.00,weatherlink.com 1.10,2013-11-04 19:54:00,
2013-11-04 13:09:00,52.7,27.0,29.90,SE,139,8.0,10.0,37,0.00,,,0.00,weatherlink.com 1.10,2013-11-04 20:09:00,
2013-11-04 13:24:00,52.2,24.0,29.90,WSW,258,8.0,15.0,34,0.00,,,0.00,weatherlink.com 1.10,2013-11-04 20:24:00,
2013-11-04 13:39:00,51.9,23.0,29.90,South,173,5.0,16.0,33,0.00,,,0.00,weatherlink.com 1.10,2013-11-04 20:39:00,
2013-11-04 13:54:00,53.0,25.0,29.90,SW,225,3.0,9.0,34,0.00,,,0.00,weatherlink.com 1.10,2013-11-04 20:54:00,
2013-11-04 14:09:00,51.1,24.0,29.90,SW,221,6.0,18.0,35,0.00,,,0.00,weatherlink.com 1.10,2013-11-04 21:09:00,
2013-11-04 14:24:00,51.7,25.0,29.90,SSE,164,4.0,13.0,36,0.00,,,0.00,weatherlink.com 1.10,2013-11-04 21:24:00,
2013-11-04 14:39:00,51.8,25.0,29.90,WSW,254,5.0,12.0,35,0.00,,,0.00,weatherlink.com 1.10,2013-11-04 21:39:00,
2013-11-04 14:54:00,50.5,26.0,29.89,West,265,7.0,13.0,38,0.00,,,0.00,weatherlink.com 1.10,2013-11-04 21:54:00,
2013-11-04 15:09:00,50.4,27.0,29.89,NW,305,3.0,14.0,40,0.00,,,0.00,weatherlink.com 1.10,2013-11-04 22:09:00,
2013-11-04 15:24:00,50.4,27.0,29.89,SSE,167,6.0,12.0,41,0.00,,,0.00,weatherlink.com 1.10,2013-11-04 22:24:00,
2013-11-04 15:39:00,50.0,28.0,29.89,South,189,7.0,15.0,42,0.00,,,0.00,weatherlink.com 1.10,2013-11-04 22:39:00,
2013-11-04 15:55:00,49.7,28.0,29.89,SSW,192,6.0,13.0,43,0.00,,,0.00,weatherlink.com 1.10,2013-11-04 22:55:00,
2013-11-04 16:10:00,49.4,29.0,29.89,South,170,8.0,12.0,45,0.00,,,0.00,weatherlink.com 1.10,2013-11-04 23:10:00,
2013-11-04 16:25:00,49.3,29.0,29.89,SSW,205,2.0,11.0,46,0.00,,,0.00,weatherlink.com 1.10,2013-11-04 23:25:00,
2013-11-04 16:40:00,48.7,29.0,29.90,SE,124,9.0,11.0,47,0.00,,,0.00,weatherlink.com 1.10,2013-11-04 23:40:00,
2013-11-04 16:55:00,48.0,28.0,29.90,SW,215,4.0,10.0,47,0.00,,,0.00,weatherlink.com 1.10,2013-11-04 23:55:00,
2013-11-04 17:10:00,47.4,28.0,29.89,SSE,164,3.0,6.0,48,0.00,,,0.00,weatherlink.com 1.10,2013-11-05 00:10:00,
2013-11-04 17:25:00,46.5,28.0,29.90,WSW,242,2.0,7.0,49,0.00,,,0.00,weatherlink.com 1.10,2013-11-05 00:25:00,
2013-11-04 17:40:00,46.1,27.0,29.90,WSW,242,3.0,8.0,47,0.00,,,0.00,weatherlink.com 1.10,2013-11-05 00:40:00,
2013-11-04 17:55:00,45.5,26.0,29.90,WSW,248,3.0,7.0,47,0.00,,,0.00,weatherlink.com 1.10,2013-11-05 00:55:00,
2013-11-04 18:10:00,44.5,26.0,29.91,West,262,2.0,7.0,49,0.00,,,0.00,weatherlink.com 1.10,2013-11-05 01:10:00,
2013-11-04 18:25:00,43.7,26.0,29.92,WSW,254,3.0,5.0,50,0.00,,,0.00,weatherlink.com 1.10,2013-11-05 01:25:00,
2013-11-04 18:40:00,43.4,25.0,29.92,WNW,301,0.0,4.0,49,0.00,,,0.00,weatherlink.com 1.10,2013-11-05 01:40:00,
2013-11-04 18:55:00,42.7,25.0,29.93,West,263,1.0,5.0,49,0.00,,,0.00,weatherlink.com 1.10,2013-11-05 01:55:00,
2013-11-04 19:10:00,42.2,25.0,29.94,WSW,253,2.0,3.0,50,0.00,,,0.00,weatherlink.com 1.10,2013-11-05 02:10:00,
2013-11-04 19:25:00,41.8,24.0,29.94,WNW,291,1.0,4.0,50,0.00,,,0.00,weatherlink.com 1.10,2013-11-05 02:25:00,
2013-11-04 19:40:00,41.4,24.0,29.94,West,271,2.0,5.0,50,0.00,,,0.00,weatherlink.com 1.10,2013-11-05 02:40:00,
2013-11-04 19:55:00,40.9,23.0,29.94,WSW,256,1.0,3.0,50,0.00,,,0.00,weatherlink.com 1.10,2013-11-05 02:55:00,
2013-11-04 20:10:00,41.1,23.0,29.94,West,265,2.0,4.0,48,0.00,,,0.00,weatherlink.com 1.10,2013-11-05 03:10:00,
2013-11-04 20:25:00,39.9,23.0,29.94,WNW,288,0.0,3.0,51,0.00,,,0.00,weatherlink.com 1.10,2013-11-05 03:25:00,
2013-11-04 20:40:00,37.5,23.0,29.94,WNW,288,0.0,1.0,55,0.00,,,0.00,weatherlink.com 1.10,2013-11-05 03:40:00,
2013-11-04 20:55:00,36.4,22.0,29.94,WNW,290,0.0,1.0,56,0.00,,,0.00,weatherlink.com 1.10,2013-11-05 03:55:00,
2013-11-04 21:10:00,35.4,22.0,29.93,West,264,0.0,1.0,58,0.00,,,0.00,weatherlink.com 1.10,2013-11-05 04:10:00,
2013-11-04 21:25:00,34.2,22.0,29.93,West,262,0.0,1.0,61,0.00,,,0.00,weatherlink.com 1.10,2013-11-05 04:25:00,
2013-11-04 21:40:00,33.8,22.0,29.94,West,262,0.0,1.0,63,0.00,,,0.00,weatherlink.com 1.10,2013-11-05 04:40:00,
2013-11-04 21:55:00,33.3,22.0,29.95,West,262,0.0,1.0,64,0.00,,,0.00,weatherlink.com 1.10,2013-11-05 04:55:00,
2013-11-04 22:10:00,33.1,22.0,29.95,West,262,0.0,1.0,64,0.00,,,0.00,weatherlink.com 1.10,2013-11-05 05:10:00,
2013-11-04 22:25:00,33.1,22.0,29.96,SE,134,1.0,3.0,64,0.00,,,0.00,weatherlink.com 1.10,2013-11-05 05:25:00,
2013-11-04 22:40:00,33.0,22.0,29.96,NW,310,0.0,1.0,64,0.00,,,0.00,weatherlink.com 1.10,2013-11-05 05:40:00,
2013-11-04 22:55:00,32.2,22.0,29.96,NNW,345,0.0,1.0,66,0.00,,,0.00,weatherlink.com 1.10,2013-11-05 05:55:00,
2013-11-04 23:10:00,32.0,22.0,29.96,NW,314,0.0,1.0,66,0.00,,,0.00,weatherlink.com 1.10,2013-11-05 06:10:00,
2013-11-04 23:25:00,31.9,22.0,29.96,NW,314,0.0,0.0,67,0.00,,,0.00,weatherlink.com 1.10,2013-11-05 06:25:00,
2013-11-04 23:40:00,32.2,22.0,29.98,WSW,239,0.0,0.0,67,0.00,,,0.00,weatherlink.com 1.10,2013-11-05 06:40:00,
2013-11-04 23:55:00,33.8,21.0,29.98,South,183,0.0,3.0,59,0.00,,,0.00,weatherlink.com 1.10,2013-11-05 06:55:00,